sensor_id;sensor_type;location;lat;lon;timestamp;P1;durP1;ratioP1;P2;durP2;ratioP2
9712;SDS011;4895;50.926;6.870;2022-08-07T00:00:55;2.87;;;1.73;;
9712;SDS011;4895;50.926;6.870;2022-08-07T00:03:20;3.53;;;1.80;;
9712;SDS011;4895;50.926;6.870;2022-08-07T00:05:48;6.43;;;1.83;;
9712;SDS011;4895;50.926;6.870;2022-08-07T00:08:16;5.20;;;2.17;;
9712;SDS011;4895;50.926;6.870;2022-08-07T00:10:41;6.80;;;2.00;;
9712;SDS011;4895;50.926;6.870;2022-08-07T00:13:07;4.30;;;2.07;;
9712;SDS011;4895;50.926;6.870;2022-08-07T00:15:32;3.20;;;1.90;;
9712;SDS011;4895;50.926;6.870;2022-08-07T00:17:57;6.30;;;2.77;;
9712;SDS011;4895;50.926;6.870;2022-08-07T00:20:23;3.07;;;2.07;;
9712;SDS011;4895;50.926;6.870;2022-08-07T00:22:49;6.03;;;2.00;;
9712;SDS011;4895;50.926;6.870;2022-08-07T00:25:14;7.00;;;2.30;;
9712;SDS011;4895;50.926;6.870;2022-08-07T00:27:39;6.37;;;2.37;;
9712;SDS011;4895;50.926;6.870;2022-08-07T00:30:05;5.27;;;2.30;;
9712;SDS011;4895;50.926;6.870;2022-08-07T00:32:30;3.33;;;1.80;;
9712;SDS011;4895;50.926;6.870;2022-08-07T00:34:56;3.70;;;1.90;;
9712;SDS011;4895;50.926;6.870;2022-08-07T00:37:21;2.63;;;1.60;;
9712;SDS011;4895;50.926;6.870;2022-08-07T00:39:46;3.90;;;2.13;;
9712;SDS011;4895;50.926;6.870;2022-08-07T00:42:12;3.43;;;2.03;;
9712;SDS011;4895;50.926;6.870;2022-08-07T00:44:37;4.47;;;2.17;;
9712;SDS011;4895;50.926;6.870;2022-08-07T00:47:03;7.03;;;2.00;;
9712;SDS011;4895;50.926;6.870;2022-08-07T00:49:29;6.23;;;2.37;;
9712;SDS011;4895;50.926;6.870;2022-08-07T00:51:55;4.43;;;2.23;;
9712;SDS011;4895;50.926;6.870;2022-08-07T00:54:20;5.63;;;2.57;;
9712;SDS011;4895;50.926;6.870;2022-08-07T00:56:46;3.27;;;2.30;;
9712;SDS011;4895;50.926;6.870;2022-08-07T00:59:12;5.83;;;2.63;;
9712;SDS011;4895;50.926;6.870;2022-08-07T01:01:37;3.43;;;2.40;;
9712;SDS011;4895;50.926;6.870;2022-08-07T01:04:03;4.00;;;1.97;;
9712;SDS011;4895;50.926;6.870;2022-08-07T01:06:30;4.37;;;1.97;;
9712;SDS011;4895;50.926;6.870;2022-08-07T01:08:55;5.43;;;2.00;;
9712;SDS011;4895;50.926;6.870;2022-08-07T01:11:21;3.30;;;1.80;;
9712;SDS011;4895;50.926;6.870;2022-08-07T01:13:46;3.10;;;2.27;;
9712;SDS011;4895;50.926;6.870;2022-08-07T01:16:12;5.00;;;2.37;;
9712;SDS011;4895;50.926;6.870;2022-08-07T01:18:38;4.90;;;2.60;;
9712;SDS011;4895;50.926;6.870;2022-08-07T01:21:16;4.00;;;2.30;;
9712;SDS011;4895;50.926;6.870;2022-08-07T01:23:49;5.37;;;2.57;;
9712;SDS011;4895;50.926;6.870;2022-08-07T01:26:15;4.40;;;2.03;;
9712;SDS011;4895;50.926;6.870;2022-08-07T01:28:42;4.53;;;2.53;;
9712;SDS011;4895;50.926;6.870;2022-08-07T01:31:08;8.10;;;2.33;;
9712;SDS011;4895;50.926;6.870;2022-08-07T01:33:34;4.13;;;2.20;;
9712;SDS011;4895;50.926;6.870;2022-08-07T01:36:00;4.33;;;2.43;;
9712;SDS011;4895;50.926;6.870;2022-08-07T01:38:26;5.73;;;2.60;;
9712;SDS011;4895;50.926;6.870;2022-08-07T01:40:57;3.13;;;2.10;;
9712;SDS011;4895;50.926;6.870;2022-08-07T01:43:24;4.33;;;2.50;;
9712;SDS011;4895;50.926;6.870;2022-08-07T01:45:50;5.87;;;2.60;;
9712;SDS011;4895;50.926;6.870;2022-08-07T01:48:17;9.20;;;2.60;;
9712;SDS011;4895;50.926;6.870;2022-08-07T01:50:42;4.80;;;2.50;;
9712;SDS011;4895;50.926;6.870;2022-08-07T01:53:10;5.90;;;2.30;;
9712;SDS011;4895;50.926;6.870;2022-08-07T01:55:38;4.90;;;2.23;;
9712;SDS011;4895;50.926;6.870;2022-08-07T01:58:08;5.07;;;3.00;;
9712;SDS011;4895;50.926;6.870;2022-08-07T02:00:36;7.10;;;2.43;;
9712;SDS011;4895;50.926;6.870;2022-08-07T02:03:02;11.90;;;2.87;;
9712;SDS011;4895;50.926;6.870;2022-08-07T02:05:32;4.00;;;2.40;;
9712;SDS011;4895;50.926;6.870;2022-08-07T02:08:04;3.63;;;2.30;;
9712;SDS011;4895;50.926;6.870;2022-08-07T02:10:31;4.17;;;2.13;;
9712;SDS011;4895;50.926;6.870;2022-08-07T02:12:58;4.33;;;2.53;;
9712;SDS011;4895;50.926;6.870;2022-08-07T02:15:24;3.10;;;2.10;;
9712;SDS011;4895;50.926;6.870;2022-08-07T02:17:50;6.20;;;2.70;;
9712;SDS011;4895;50.926;6.870;2022-08-07T02:20:18;2.90;;;1.93;;
9712;SDS011;4895;50.926;6.870;2022-08-07T02:22:44;3.07;;;1.93;;
9712;SDS011;4895;50.926;6.870;2022-08-07T02:25:10;4.70;;;2.80;;
9712;SDS011;4895;50.926;6.870;2022-08-07T02:27:38;6.90;;;2.77;;
9712;SDS011;4895;50.926;6.870;2022-08-07T02:30:04;7.47;;;2.70;;
9712;SDS011;4895;50.926;6.870;2022-08-07T02:32:30;5.70;;;2.47;;
9712;SDS011;4895;50.926;6.870;2022-08-07T02:34:57;3.70;;;2.37;;
9712;SDS011;4895;50.926;6.870;2022-08-07T02:37:22;3.33;;;2.13;;
9712;SDS011;4895;50.926;6.870;2022-08-07T02:39:49;5.57;;;2.63;;
9712;SDS011;4895;50.926;6.870;2022-08-07T02:42:15;5.83;;;2.70;;
9712;SDS011;4895;50.926;6.870;2022-08-07T02:44:42;4.83;;;2.30;;
9712;SDS011;4895;50.926;6.870;2022-08-07T02:47:08;3.67;;;2.40;;
9712;SDS011;4895;50.926;6.870;2022-08-07T02:49:35;4.60;;;2.77;;
9712;SDS011;4895;50.926;6.870;2022-08-07T02:52:01;3.70;;;2.20;;
9712;SDS011;4895;50.926;6.870;2022-08-07T02:54:28;6.80;;;2.90;;
9712;SDS011;4895;50.926;6.870;2022-08-07T02:56:55;7.37;;;3.00;;
9712;SDS011;4895;50.926;6.870;2022-08-07T02:59:22;3.90;;;2.37;;
9712;SDS011;4895;50.926;6.870;2022-08-07T03:01:48;5.80;;;2.57;;
9712;SDS011;4895;50.926;6.870;2022-08-07T03:04:14;4.73;;;2.90;;
9712;SDS011;4895;50.926;6.870;2022-08-07T03:06:41;3.20;;;2.53;;
9712;SDS011;4895;50.926;6.870;2022-08-07T03:09:07;3.50;;;2.20;;
9712;SDS011;4895;50.926;6.870;2022-08-07T03:11:33;5.20;;;3.20;;
9712;SDS011;4895;50.926;6.870;2022-08-07T03:13:59;4.03;;;2.30;;
9712;SDS011;4895;50.926;6.870;2022-08-07T03:16:27;3.77;;;2.20;;
9712;SDS011;4895;50.926;6.870;2022-08-07T03:18:53;3.70;;;2.00;;
9712;SDS011;4895;50.926;6.870;2022-08-07T03:21:19;3.70;;;2.20;;
9712;SDS011;4895;50.926;6.870;2022-08-07T03:23:45;7.07;;;2.77;;
9712;SDS011;4895;50.926;6.870;2022-08-07T03:26:12;6.67;;;2.60;;
9712;SDS011;4895;50.926;6.870;2022-08-07T03:28:38;20.57;;;3.20;;
9712;SDS011;4895;50.926;6.870;2022-08-07T03:31:04;3.33;;;2.37;;
9712;SDS011;4895;50.926;6.870;2022-08-07T03:33:42;4.50;;;2.50;;
9712;SDS011;4895;50.926;6.870;2022-08-07T03:36:08;3.20;;;2.20;;
9712;SDS011;4895;50.926;6.870;2022-08-07T03:38:34;6.07;;;2.40;;
9712;SDS011;4895;50.926;6.870;2022-08-07T03:41:00;4.30;;;2.60;;
9712;SDS011;4895;50.926;6.870;2022-08-07T03:43:26;3.30;;;2.40;;
9712;SDS011;4895;50.926;6.870;2022-08-07T03:45:51;4.10;;;2.40;;
9712;SDS011;4895;50.926;6.870;2022-08-07T03:48:16;4.23;;;2.67;;
9712;SDS011;4895;50.926;6.870;2022-08-07T03:50:42;9.07;;;3.03;;
9712;SDS011;4895;50.926;6.870;2022-08-07T03:53:08;6.67;;;2.33;;
9712;SDS011;4895;50.926;6.870;2022-08-07T03:55:34;4.33;;;2.50;;
9712;SDS011;4895;50.926;6.870;2022-08-07T03:58:00;5.10;;;2.57;;
9712;SDS011;4895;50.926;6.870;2022-08-07T04:00:26;3.50;;;2.33;;
9712;SDS011;4895;50.926;6.870;2022-08-07T04:02:53;9.67;;;2.53;;
9712;SDS011;4895;50.926;6.870;2022-08-07T04:05:19;5.97;;;2.50;;
9712;SDS011;4895;50.926;6.870;2022-08-07T04:07:45;6.87;;;3.37;;
9712;SDS011;4895;50.926;6.870;2022-08-07T04:10:11;6.40;;;2.67;;
9712;SDS011;4895;50.926;6.870;2022-08-07T04:12:37;4.30;;;2.60;;
9712;SDS011;4895;50.926;6.870;2022-08-07T04:15:03;4.50;;;2.47;;
9712;SDS011;4895;50.926;6.870;2022-08-07T04:17:28;5.63;;;2.80;;
9712;SDS011;4895;50.926;6.870;2022-08-07T04:19:54;4.00;;;2.50;;
9712;SDS011;4895;50.926;6.870;2022-08-07T04:22:21;5.17;;;2.43;;
9712;SDS011;4895;50.926;6.870;2022-08-07T04:24:47;5.00;;;2.60;;
9712;SDS011;4895;50.926;6.870;2022-08-07T04:27:13;6.07;;;2.47;;
9712;SDS011;4895;50.926;6.870;2022-08-07T04:29:38;5.07;;;2.53;;
9712;SDS011;4895;50.926;6.870;2022-08-07T04:32:04;4.63;;;2.50;;
9712;SDS011;4895;50.926;6.870;2022-08-07T04:34:30;5.00;;;2.40;;
9712;SDS011;4895;50.926;6.870;2022-08-07T04:36:56;5.50;;;3.03;;
9712;SDS011;4895;50.926;6.870;2022-08-07T04:39:21;7.20;;;2.80;;
9712;SDS011;4895;50.926;6.870;2022-08-07T04:41:47;3.83;;;2.27;;
9712;SDS011;4895;50.926;6.870;2022-08-07T04:44:12;6.67;;;2.73;;
9712;SDS011;4895;50.926;6.870;2022-08-07T04:49:17;4.33;;;2.57;;
9712;SDS011;4895;50.926;6.870;2022-08-07T04:51:55;3.90;;;2.40;;
9712;SDS011;4895;50.926;6.870;2022-08-07T04:54:35;4.23;;;2.47;;
9712;SDS011;4895;50.926;6.870;2022-08-07T05:05:31;4.90;;;2.60;;
9712;SDS011;4895;50.926;6.870;2022-08-07T05:08:17;4.80;;;2.40;;
9712;SDS011;4895;50.926;6.870;2022-08-07T05:11:08;5.53;;;2.63;;
9712;SDS011;4895;50.926;6.870;2022-08-07T05:13:38;5.60;;;2.60;;
9712;SDS011;4895;50.926;6.870;2022-08-07T05:16:11;8.10;;;2.90;;
9712;SDS011;4895;50.926;6.870;2022-08-07T05:18:44;8.50;;;3.10;;
9712;SDS011;4895;50.926;6.870;2022-08-07T05:21:12;4.07;;;2.97;;
9712;SDS011;4895;50.926;6.870;2022-08-07T05:23:39;6.37;;;3.13;;
9712;SDS011;4895;50.926;6.870;2022-08-07T05:26:09;4.30;;;2.57;;
9712;SDS011;4895;50.926;6.870;2022-08-07T05:28:37;8.00;;;2.93;;
9712;SDS011;4895;50.926;6.870;2022-08-07T05:31:03;6.37;;;3.27;;
9712;SDS011;4895;50.926;6.870;2022-08-07T05:33:29;4.83;;;2.77;;
9712;SDS011;4895;50.926;6.870;2022-08-07T05:35:55;6.57;;;2.93;;
9712;SDS011;4895;50.926;6.870;2022-08-07T05:38:21;4.53;;;2.83;;
9712;SDS011;4895;50.926;6.870;2022-08-07T05:40:47;5.60;;;2.90;;
9712;SDS011;4895;50.926;6.870;2022-08-07T05:43:13;5.33;;;2.73;;
9712;SDS011;4895;50.926;6.870;2022-08-07T05:45:39;3.37;;;2.37;;
9712;SDS011;4895;50.926;6.870;2022-08-07T05:48:05;4.90;;;2.43;;
9712;SDS011;4895;50.926;6.870;2022-08-07T05:50:31;3.70;;;2.67;;
9712;SDS011;4895;50.926;6.870;2022-08-07T05:52:58;6.50;;;3.30;;
9712;SDS011;4895;50.926;6.870;2022-08-07T05:55:24;6.47;;;2.93;;
9712;SDS011;4895;50.926;6.870;2022-08-07T05:57:50;4.90;;;2.53;;
9712;SDS011;4895;50.926;6.870;2022-08-07T06:00:16;4.00;;;2.40;;
9712;SDS011;4895;50.926;6.870;2022-08-07T06:02:44;4.23;;;2.50;;
9712;SDS011;4895;50.926;6.870;2022-08-07T06:05:12;4.37;;;2.60;;
9712;SDS011;4895;50.926;6.870;2022-08-07T06:07:38;5.20;;;3.13;;
9712;SDS011;4895;50.926;6.870;2022-08-07T06:10:04;6.10;;;3.30;;
9712;SDS011;4895;50.926;6.870;2022-08-07T06:12:30;6.50;;;3.17;;
9712;SDS011;4895;50.926;6.870;2022-08-07T06:14:56;6.50;;;3.00;;
9712;SDS011;4895;50.926;6.870;2022-08-07T06:17:22;5.00;;;2.80;;
9712;SDS011;4895;50.926;6.870;2022-08-07T06:19:47;5.93;;;3.30;;
9712;SDS011;4895;50.926;6.870;2022-08-07T06:22:14;6.80;;;2.53;;
9712;SDS011;4895;50.926;6.870;2022-08-07T06:24:40;6.70;;;3.00;;
9712;SDS011;4895;50.926;6.870;2022-08-07T06:27:05;4.40;;;2.80;;
9712;SDS011;4895;50.926;6.870;2022-08-07T06:29:31;6.00;;;3.20;;
9712;SDS011;4895;50.926;6.870;2022-08-07T06:31:57;6.40;;;3.60;;
9712;SDS011;4895;50.926;6.870;2022-08-07T06:34:23;5.20;;;2.60;;
9712;SDS011;4895;50.926;6.870;2022-08-07T06:36:49;9.17;;;3.00;;
9712;SDS011;4895;50.926;6.870;2022-08-07T06:39:15;6.80;;;2.67;;
9712;SDS011;4895;50.926;6.870;2022-08-07T06:41:41;5.67;;;2.90;;
9712;SDS011;4895;50.926;6.870;2022-08-07T06:44:09;4.47;;;2.60;;
9712;SDS011;4895;50.926;6.870;2022-08-07T06:46:35;5.63;;;2.80;;
9712;SDS011;4895;50.926;6.870;2022-08-07T06:49:00;9.37;;;3.33;;
9712;SDS011;4895;50.926;6.870;2022-08-07T06:51:26;9.87;;;3.30;;
9712;SDS011;4895;50.926;6.870;2022-08-07T06:53:53;8.33;;;3.00;;
9712;SDS011;4895;50.926;6.870;2022-08-07T06:56:20;5.50;;;2.73;;
9712;SDS011;4895;50.926;6.870;2022-08-07T06:59:05;4.70;;;2.70;;
9712;SDS011;4895;50.926;6.870;2022-08-07T07:01:31;5.20;;;2.70;;
9712;SDS011;4895;50.926;6.870;2022-08-07T07:03:57;5.60;;;2.70;;
9712;SDS011;4895;50.926;6.870;2022-08-07T07:06:22;7.90;;;3.50;;
9712;SDS011;4895;50.926;6.870;2022-08-07T07:08:48;6.10;;;2.73;;
9712;SDS011;4895;50.926;6.870;2022-08-07T07:11:13;5.43;;;3.20;;
9712;SDS011;4895;50.926;6.870;2022-08-07T07:13:40;6.70;;;2.77;;
9712;SDS011;4895;50.926;6.870;2022-08-07T07:16:08;5.07;;;2.43;;
9712;SDS011;4895;50.926;6.870;2022-08-07T07:18:41;5.07;;;2.83;;
9712;SDS011;4895;50.926;6.870;2022-08-07T07:21:14;4.17;;;2.23;;
9712;SDS011;4895;50.926;6.870;2022-08-07T07:23:41;6.00;;;2.30;;
9712;SDS011;4895;50.926;6.870;2022-08-07T07:26:08;7.20;;;2.73;;
9712;SDS011;4895;50.926;6.870;2022-08-07T07:28:40;5.57;;;2.20;;
9712;SDS011;4895;50.926;6.870;2022-08-07T07:31:30;7.13;;;2.30;;
9712;SDS011;4895;50.926;6.870;2022-08-07T07:33:59;8.03;;;2.33;;
9712;SDS011;4895;50.926;6.870;2022-08-07T07:36:27;4.90;;;2.03;;
9712;SDS011;4895;50.926;6.870;2022-08-07T07:38:54;4.10;;;2.30;;
9712;SDS011;4895;50.926;6.870;2022-08-07T07:41:20;4.27;;;2.10;;
9712;SDS011;4895;50.926;6.870;2022-08-07T07:43:47;3.60;;;1.67;;
9712;SDS011;4895;50.926;6.870;2022-08-07T07:46:15;2.93;;;1.50;;
9712;SDS011;4895;50.926;6.870;2022-08-07T07:48:41;3.00;;;1.90;;
9712;SDS011;4895;50.926;6.870;2022-08-07T07:51:08;3.30;;;1.90;;
9712;SDS011;4895;50.926;6.870;2022-08-07T07:53:36;3.60;;;1.83;;
9712;SDS011;4895;50.926;6.870;2022-08-07T07:56:04;4.57;;;1.60;;
9712;SDS011;4895;50.926;6.870;2022-08-07T07:58:31;3.00;;;1.40;;
9712;SDS011;4895;50.926;6.870;2022-08-07T08:00:58;4.43;;;1.60;;
9712;SDS011;4895;50.926;6.870;2022-08-07T08:03:24;2.53;;;1.27;;
9712;SDS011;4895;50.926;6.870;2022-08-07T08:05:50;3.50;;;1.23;;
9712;SDS011;4895;50.926;6.870;2022-08-07T08:08:16;2.13;;;1.23;;
9712;SDS011;4895;50.926;6.870;2022-08-07T08:10:41;2.93;;;1.50;;
9712;SDS011;4895;50.926;6.870;2022-08-07T08:13:07;1.60;;;1.17;;
9712;SDS011;4895;50.926;6.870;2022-08-07T08:15:35;4.93;;;1.50;;
9712;SDS011;4895;50.926;6.870;2022-08-07T08:18:04;3.83;;;1.50;;
9712;SDS011;4895;50.926;6.870;2022-08-07T08:20:33;2.63;;;1.20;;
9712;SDS011;4895;50.926;6.870;2022-08-07T08:22:59;2.90;;;1.23;;
9712;SDS011;4895;50.926;6.870;2022-08-07T08:25:45;2.97;;;1.33;;
9712;SDS011;4895;50.926;6.870;2022-08-07T08:28:30;2.60;;;1.20;;
9712;SDS011;4895;50.926;6.870;2022-08-07T08:30:57;4.70;;;1.77;;
9712;SDS011;4895;50.926;6.870;2022-08-07T08:33:25;2.30;;;1.20;;
9712;SDS011;4895;50.926;6.870;2022-08-07T08:35:53;4.37;;;1.33;;
9712;SDS011;4895;50.926;6.870;2022-08-07T08:38:21;2.27;;;1.27;;
9712;SDS011;4895;50.926;6.870;2022-08-07T08:40:55;2.53;;;1.13;;
9712;SDS011;4895;50.926;6.870;2022-08-07T08:45:57;3.90;;;1.40;;
9712;SDS011;4895;50.926;6.870;2022-08-07T08:50:59;1.60;;;1.00;;
9712;SDS011;4895;50.926;6.870;2022-08-07T08:53:41;1.97;;;1.13;;
9712;SDS011;4895;50.926;6.870;2022-08-07T08:56:14;5.80;;;1.30;;
9712;SDS011;4895;50.926;6.870;2022-08-07T09:01:30;2.30;;;1.50;;
9712;SDS011;4895;50.926;6.870;2022-08-07T09:04:05;2.53;;;1.40;;
9712;SDS011;4895;50.926;6.870;2022-08-07T09:23:54;2.47;;;1.10;;
9712;SDS011;4895;50.926;6.870;2022-08-07T09:26:32;3.17;;;1.30;;
9712;SDS011;4895;50.926;6.870;2022-08-07T09:29:28;5.07;;;1.67;;
9712;SDS011;4895;50.926;6.870;2022-08-07T09:35:39;5.20;;;1.60;;
9712;SDS011;4895;50.926;6.870;2022-08-07T09:44:10;5.10;;;1.63;;
9712;SDS011;4895;50.926;6.870;2022-08-07T09:47:02;3.50;;;1.30;;
9712;SDS011;4895;50.926;6.870;2022-08-07T09:52:28;4.90;;;1.10;;
9712;SDS011;4895;50.926;6.870;2022-08-07T10:00:14;1.67;;;1.17;;
9712;SDS011;4895;50.926;6.870;2022-08-07T10:36:12;1.40;;;1.00;;
9712;SDS011;4895;50.926;6.870;2022-08-07T10:38:49;1.90;;;1.10;;
9712;SDS011;4895;50.926;6.870;2022-08-07T10:41:33;1.70;;;0.90;;
9712;SDS011;4895;50.926;6.870;2022-08-07T10:46:43;1.43;;;0.80;;
9712;SDS011;4895;50.926;6.870;2022-08-07T10:52:13;2.10;;;0.70;;
9712;SDS011;4895;50.926;6.870;2022-08-07T10:54:44;3.37;;;0.97;;
9712;SDS011;4895;50.926;6.870;2022-08-07T10:57:33;1.80;;;1.03;;
9712;SDS011;4895;50.926;6.870;2022-08-07T11:05:30;4.90;;;1.10;;
9712;SDS011;4895;50.926;6.870;2022-08-07T11:10:46;1.90;;;0.90;;
9712;SDS011;4895;50.926;6.870;2022-08-07T11:15:47;4.30;;;1.10;;
9712;SDS011;4895;50.926;6.870;2022-08-07T11:18:15;3.10;;;1.23;;
9712;SDS011;4895;50.926;6.870;2022-08-07T11:20:54;2.90;;;0.90;;
9712;SDS011;4895;50.926;6.870;2022-08-07T11:23:24;1.63;;;0.87;;
9712;SDS011;4895;50.926;6.870;2022-08-07T11:26:25;2.13;;;1.00;;
9712;SDS011;4895;50.926;6.870;2022-08-07T11:29:04;4.73;;;1.83;;
9712;SDS011;4895;50.926;6.870;2022-08-07T11:31:52;4.63;;;1.20;;
9712;SDS011;4895;50.926;6.870;2022-08-07T11:42:54;1.87;;;0.83;;
9712;SDS011;4895;50.926;6.870;2022-08-07T12:07:43;2.40;;;1.10;;
9712;SDS011;4895;50.926;6.870;2022-08-07T12:10:23;5.10;;;1.10;;
9712;SDS011;4895;50.926;6.870;2022-08-07T12:13:11;6.77;;;1.50;;
9712;SDS011;4895;50.926;6.870;2022-08-07T12:15:44;4.33;;;1.20;;
9712;SDS011;4895;50.926;6.870;2022-08-07T12:18:18;3.17;;;1.20;;
9712;SDS011;4895;50.926;6.870;2022-08-07T12:26:57;1.67;;;1.00;;
9712;SDS011;4895;50.926;6.870;2022-08-07T12:29:28;1.93;;;1.00;;
9712;SDS011;4895;50.926;6.870;2022-08-07T12:35:03;2.60;;;0.90;;
9712;SDS011;4895;50.926;6.870;2022-08-07T12:37:30;2.60;;;1.00;;
9712;SDS011;4895;50.926;6.870;2022-08-07T12:39:57;2.17;;;1.10;;
9712;SDS011;4895;50.926;6.870;2022-08-07T12:42:24;2.27;;;1.00;;
9712;SDS011;4895;50.926;6.870;2022-08-07T12:44:50;1.53;;;0.90;;
9712;SDS011;4895;50.926;6.870;2022-08-07T12:47:23;1.77;;;1.00;;
9712;SDS011;4895;50.926;6.870;2022-08-07T12:57:34;1.73;;;0.90;;
9712;SDS011;4895;50.926;6.870;2022-08-07T13:00:02;2.10;;;0.97;;
9712;SDS011;4895;50.926;6.870;2022-08-07T13:21:17;1.77;;;0.80;;
9712;SDS011;4895;50.926;6.870;2022-08-07T13:29:10;2.50;;;0.60;;
9712;SDS011;4895;50.926;6.870;2022-08-07T13:34:50;1.80;;;0.87;;
9712;SDS011;4895;50.926;6.870;2022-08-07T13:42:56;4.83;;;3.40;;
9712;SDS011;4895;50.926;6.870;2022-08-07T13:45:23;1.90;;;1.10;;
9712;SDS011;4895;50.926;6.870;2022-08-07T13:47:50;2.40;;;0.90;;
9712;SDS011;4895;50.926;6.870;2022-08-07T13:50:18;2.37;;;0.90;;
9712;SDS011;4895;50.926;6.870;2022-08-07T13:52:44;3.80;;;1.17;;
9712;SDS011;4895;50.926;6.870;2022-08-07T13:55:11;2.10;;;1.10;;
9712;SDS011;4895;50.926;6.870;2022-08-07T13:57:39;2.20;;;0.90;;
9712;SDS011;4895;50.926;6.870;2022-08-07T14:00:07;4.77;;;1.07;;
9712;SDS011;4895;50.926;6.870;2022-08-07T14:02:33;3.27;;;0.90;;
9712;SDS011;4895;50.926;6.870;2022-08-07T14:05:01;1.83;;;0.80;;
9712;SDS011;4895;50.926;6.870;2022-08-07T14:07:41;2.03;;;0.87;;
9712;SDS011;4895;50.926;6.870;2022-08-07T14:10:09;4.33;;;1.10;;
9712;SDS011;4895;50.926;6.870;2022-08-07T14:12:47;3.43;;;0.80;;
9712;SDS011;4895;50.926;6.870;2022-08-07T14:16:01;1.70;;;0.90;;
9712;SDS011;4895;50.926;6.870;2022-08-07T14:18:06;2.43;;;0.80;;
9712;SDS011;4895;50.926;6.870;2022-08-07T14:20:35;4.93;;;1.20;;
9712;SDS011;4895;50.926;6.870;2022-08-07T14:23:03;3.20;;;1.07;;
9712;SDS011;4895;50.926;6.870;2022-08-07T14:25:32;2.40;;;1.30;;
9712;SDS011;4895;50.926;6.870;2022-08-07T14:28:01;1.33;;;0.80;;
9712;SDS011;4895;50.926;6.870;2022-08-07T14:30:28;6.40;;;1.03;;
9712;SDS011;4895;50.926;6.870;2022-08-07T14:32:59;2.40;;;0.70;;
9712;SDS011;4895;50.926;6.870;2022-08-07T14:35:35;1.40;;;0.87;;
9712;SDS011;4895;50.926;6.870;2022-08-07T14:38:01;2.40;;;0.93;;
9712;SDS011;4895;50.926;6.870;2022-08-07T14:40:27;2.10;;;0.90;;
9712;SDS011;4895;50.926;6.870;2022-08-07T14:42:55;1.83;;;0.70;;
9712;SDS011;4895;50.926;6.870;2022-08-07T14:45:22;1.53;;;1.00;;
9712;SDS011;4895;50.926;6.870;2022-08-07T14:47:50;1.40;;;0.80;;
9712;SDS011;4895;50.926;6.870;2022-08-07T14:50:16;3.83;;;1.00;;
9712;SDS011;4895;50.926;6.870;2022-08-07T14:52:46;2.93;;;1.00;;
9712;SDS011;4895;50.926;6.870;2022-08-07T14:55:13;6.10;;;1.07;;
9712;SDS011;4895;50.926;6.870;2022-08-07T14:57:39;2.43;;;0.90;;
9712;SDS011;4895;50.926;6.870;2022-08-07T15:00:06;3.57;;;0.80;;
9712;SDS011;4895;50.926;6.870;2022-08-07T15:02:33;3.57;;;0.90;;
9712;SDS011;4895;50.926;6.870;2022-08-07T15:05:01;1.40;;;0.70;;
9712;SDS011;4895;50.926;6.870;2022-08-07T15:07:27;2.10;;;1.17;;
9712;SDS011;4895;50.926;6.870;2022-08-07T15:09:54;1.87;;;0.80;;
9712;SDS011;4895;50.926;6.870;2022-08-07T15:12:21;4.13;;;0.93;;
9712;SDS011;4895;50.926;6.870;2022-08-07T15:14:50;4.33;;;1.00;;
9712;SDS011;4895;50.926;6.870;2022-08-07T15:17:20;1.20;;;0.67;;
9712;SDS011;4895;50.926;6.870;2022-08-07T15:19:56;1.30;;;0.80;;
9712;SDS011;4895;50.926;6.870;2022-08-07T15:22:25;1.53;;;0.70;;
9712;SDS011;4895;50.926;6.870;2022-08-07T15:24:53;1.97;;;0.90;;
9712;SDS011;4895;50.926;6.870;2022-08-07T15:27:20;3.50;;;1.00;;
9712;SDS011;4895;50.926;6.870;2022-08-07T15:29:48;2.43;;;0.90;;
9712;SDS011;4895;50.926;6.870;2022-08-07T15:32:21;1.37;;;0.80;;
9712;SDS011;4895;50.926;6.870;2022-08-07T15:34:51;2.47;;;1.10;;
9712;SDS011;4895;50.926;6.870;2022-08-07T15:37:20;3.63;;;0.83;;
9712;SDS011;4895;50.926;6.870;2022-08-07T15:39:51;1.80;;;1.00;;
9712;SDS011;4895;50.926;6.870;2022-08-07T15:45:05;2.13;;;1.00;;
9712;SDS011;4895;50.926;6.870;2022-08-07T15:47:36;2.43;;;1.00;;
9712;SDS011;4895;50.926;6.870;2022-08-07T15:50:07;1.40;;;0.80;;
9712;SDS011;4895;50.926;6.870;2022-08-07T15:52:35;1.40;;;0.83;;
9712;SDS011;4895;50.926;6.870;2022-08-07T15:55:03;3.23;;;0.90;;
9712;SDS011;4895;50.926;6.870;2022-08-07T15:57:32;1.70;;;0.80;;
9712;SDS011;4895;50.926;6.870;2022-08-07T15:59:58;2.23;;;1.03;;
9712;SDS011;4895;50.926;6.870;2022-08-07T16:02:26;1.60;;;0.83;;
9712;SDS011;4895;50.926;6.870;2022-08-07T16:04:58;1.80;;;0.83;;
9712;SDS011;4895;50.926;6.870;2022-08-07T16:07:25;1.87;;;0.80;;
9712;SDS011;4895;50.926;6.870;2022-08-07T16:09:56;2.43;;;0.93;;
9712;SDS011;4895;50.926;6.870;2022-08-07T16:12:48;1.43;;;0.70;;
9712;SDS011;4895;50.926;6.870;2022-08-07T16:17:58;4.23;;;1.40;;
9712;SDS011;4895;50.926;6.870;2022-08-07T16:28:36;1.30;;;0.83;;
9712;SDS011;4895;50.926;6.870;2022-08-07T16:33:41;1.67;;;1.00;;
9712;SDS011;4895;50.926;6.870;2022-08-07T16:39:03;2.30;;;1.03;;
9712;SDS011;4895;50.926;6.870;2022-08-07T16:55:29;1.50;;;1.00;;
9712;SDS011;4895;50.926;6.870;2022-08-07T16:58:04;1.93;;;1.10;;
9712;SDS011;4895;50.926;6.870;2022-08-07T17:00:41;2.20;;;0.90;;
9712;SDS011;4895;50.926;6.870;2022-08-07T17:03:14;2.13;;;1.17;;
9712;SDS011;4895;50.926;6.870;2022-08-07T17:08:16;1.83;;;1.20;;
9712;SDS011;4895;50.926;6.870;2022-08-07T17:10:51;2.93;;;1.13;;
9712;SDS011;4895;50.926;6.870;2022-08-07T17:16:21;1.87;;;0.80;;
9712;SDS011;4895;50.926;6.870;2022-08-07T17:21:28;2.27;;;0.80;;
9712;SDS011;4895;50.926;6.870;2022-08-07T17:23:58;2.60;;;0.90;;
9712;SDS011;4895;50.926;6.870;2022-08-07T17:26:35;1.50;;;0.80;;
9712;SDS011;4895;50.926;6.870;2022-08-07T17:29:07;1.80;;;0.83;;
9712;SDS011;4895;50.926;6.870;2022-08-07T17:32:04;2.00;;;0.90;;
9712;SDS011;4895;50.926;6.870;2022-08-07T17:34:44;1.83;;;0.90;;
9712;SDS011;4895;50.926;6.870;2022-08-07T17:37:26;3.10;;;0.97;;
9712;SDS011;4895;50.926;6.870;2022-08-07T17:39:56;1.87;;;0.93;;
9712;SDS011;4895;50.926;6.870;2022-08-07T17:42:30;2.00;;;0.90;;
9712;SDS011;4895;50.926;6.870;2022-08-07T17:45:09;1.40;;;0.90;;
9712;SDS011;4895;50.926;6.870;2022-08-07T17:47:43;1.70;;;0.90;;
9712;SDS011;4895;50.926;6.870;2022-08-07T17:50:19;2.17;;;1.00;;
9712;SDS011;4895;50.926;6.870;2022-08-07T17:52:54;1.87;;;1.10;;
9712;SDS011;4895;50.926;6.870;2022-08-07T17:55:30;2.50;;;1.10;;
9712;SDS011;4895;50.926;6.870;2022-08-07T17:58:06;3.00;;;1.20;;
9712;SDS011;4895;50.926;6.870;2022-08-07T18:00:33;3.50;;;1.10;;
9712;SDS011;4895;50.926;6.870;2022-08-07T18:03:06;2.63;;;1.00;;
9712;SDS011;4895;50.926;6.870;2022-08-07T18:08:35;2.00;;;1.10;;
9712;SDS011;4895;50.926;6.870;2022-08-07T18:11:20;2.20;;;1.20;;
9712;SDS011;4895;50.926;6.870;2022-08-07T18:16:40;3.30;;;1.20;;
9712;SDS011;4895;50.926;6.870;2022-08-07T18:19:19;1.83;;;1.10;;
9712;SDS011;4895;50.926;6.870;2022-08-07T18:21:56;1.57;;;0.80;;
9712;SDS011;4895;50.926;6.870;2022-08-07T18:43:59;1.60;;;0.83;;
9712;SDS011;4895;50.926;6.870;2022-08-07T18:46:42;2.63;;;1.00;;
9712;SDS011;4895;50.926;6.870;2022-08-07T18:49:22;1.67;;;0.93;;
9712;SDS011;4895;50.926;6.870;2022-08-07T18:54:34;2.90;;;1.00;;
9712;SDS011;4895;50.926;6.870;2022-08-07T18:57:34;2.27;;;1.20;;
9712;SDS011;4895;50.926;6.870;2022-08-07T19:00:06;2.40;;;1.10;;
9712;SDS011;4895;50.926;6.870;2022-08-07T19:05:36;2.43;;;1.20;;
9712;SDS011;4895;50.926;6.870;2022-08-07T19:08:07;3.60;;;1.30;;
9712;SDS011;4895;50.926;6.870;2022-08-07T19:13:25;4.87;;;1.10;;
9712;SDS011;4895;50.926;6.870;2022-08-07T19:16:16;5.37;;;1.60;;
9712;SDS011;4895;50.926;6.870;2022-08-07T19:23:59;2.70;;;1.33;;
9712;SDS011;4895;50.926;6.870;2022-08-07T19:26:28;6.60;;;1.70;;
9712;SDS011;4895;50.926;6.870;2022-08-07T19:28:59;3.83;;;2.00;;
9712;SDS011;4895;50.926;6.870;2022-08-07T19:31:31;5.20;;;1.47;;
9712;SDS011;4895;50.926;6.870;2022-08-07T19:33:59;2.37;;;1.50;;
9712;SDS011;4895;50.926;6.870;2022-08-07T19:36:29;3.20;;;1.77;;
9712;SDS011;4895;50.926;6.870;2022-08-07T19:38:56;4.37;;;1.40;;
9712;SDS011;4895;50.926;6.870;2022-08-07T19:41:25;3.83;;;1.57;;
9712;SDS011;4895;50.926;6.870;2022-08-07T19:43:54;3.10;;;1.67;;
9712;SDS011;4895;50.926;6.870;2022-08-07T19:46:24;3.57;;;2.03;;
9712;SDS011;4895;50.926;6.870;2022-08-07T19:49:03;4.10;;;1.80;;
9712;SDS011;4895;50.926;6.870;2022-08-07T19:51:31;6.60;;;1.70;;
9712;SDS011;4895;50.926;6.870;2022-08-07T19:53:57;4.50;;;1.63;;